Latest Weather Observations for Mount Hotham

IDV60801

Issued at 6:52 pm EDT Thursday 17 October 2019 (issued every 10 minutes, with the page automatically refreshed every 10 minutes)

About weather observations | Map of weather stations | Latest weather observations for VIC | Other Formats
Station Details ID: 083085 Name: MOUNT HOTHAM Lat: -36.98 Lon: 147.13 Height: 1849.0 m
Data from the previous 72 hours. | See also: Recent months at Mount Hotham
Date/Time
EDT
Temp
°C
App
Temp
°C
Dew
Point
°C
Rel
Hum
%
Delta-T
°C
Wind Press
QNH
hPa
Press
MSL
hPa
Rain since
9am
mm
Dir  Spd
km/h
Gust
km/h
Spd
kts
Gust
kts
17/06:30pm -2.1 -9.7 -2.2 99 -0.1 NW 28 44 15 24 - - -
17/06:00pm -2.3 -11.6 -2.4 99 -0.1 NW 37 56 20 30 - - -
17/05:40pm -2.4 -11.4 -2.5 99 -0.1 WNW 35 56 19 30 - - -
17/05:30pm -2.4 -11.4 -2.5 99 -0.1 WNW 35 48 19 26 - - -
17/05:01pm -2.2 -11.1 -2.3 99 -0.1 WNW 35 56 19 30 - - -
17/05:00pm -2.2 -11.1 -2.3 99 -0.1 WNW 35 52 19 28 - - -
17/04:54pm -2.1 -11.0 -2.2 99 -0.1 WNW 35 57 19 31 - - -
17/04:34pm -2.0 -11.3 -2.1 99 -0.1 NW 37 56 20 30 - - -
17/04:30pm -2.1 -12.2 -2.2 99 -0.1 NW 41 56 22 30 - - -
17/04:04pm -1.9 -10.2 -2.0 99 -0.1 WNW 32 52 17 28 - - -
17/04:00pm -1.8 -10.1 -1.9 99 -0.1 NW 32 46 17 25 - - -
17/03:30pm -1.8 -11.5 -1.9 99 -0.1 NW 39 65 21 35 - - -
17/03:00pm -2.2 -10.8 -2.3 99 -0.1 NW 33 57 18 31 - - -
17/02:31pm -2.4 -10.0 -2.5 99 -0.1 WNW 28 46 15 25 - - -
17/02:30pm -2.3 -10.3 -2.4 99 -0.1 WNW 30 46 16 25 - - -
17/02:21pm -2.2 -10.6 -2.3 99 -0.1 NW 32 44 17 24 - - -
17/02:15pm -2.0 -9.6 -2.1 99 -0.1 NW 28 48 15 26 - - -
17/02:00pm -2.1 -8.9 -2.2 99 -0.1 WNW 24 35 13 19 - - -
17/01:30pm -2.1 -11.4 -2.2 99 -0.1 NW 37 65 20 35 - - -
17/01:24pm -2.2 -11.5 -2.3 99 -0.1 NW 37 65 20 35 - - -
17/01:00pm -1.9 -9.5 -2.0 99 -0.1 NW 28 46 15 25 - - -
17/12:56pm -2.1 -10.1 -2.2 99 -0.1 NW 30 48 16 26 - - -
17/12:30pm -2.1 -10.7 -2.2 99 -0.1 NW 33 48 18 26 - - -
17/12:00pm -2.0 -12.1 -2.1 99 -0.1 NNW 41 56 22 30 - - -
17/11:52am -2.0 -12.1 -2.1 99 -0.1 NNW 41 57 22 31 - - -
17/11:30am -2.5 -11.9 -2.6 99 -0.1 NW 37 61 20 33 - - -
17/11:17am -2.7 -11.3 -2.8 99 -0.1 NW 33 59 18 32 - - -
17/11:16am -2.7 -11.3 -2.8 99 -0.1 NW 33 50 18 27 - - -
17/11:08am -2.7 -11.7 -2.8 99 -0.1 NW 35 54 19 29 - - -
17/11:00am -2.6 -11.6 -2.7 99 -0.1 NNW 35 54 19 29 - - -
17/10:30am -3.0 -11.7 -3.1 99 -0.1 NNW 33 54 18 29 - - -
17/10:00am -3.2 -12.3 -3.3 99 -0.1 NW 35 56 19 30 - - -
17/09:41am -3.3 -12.8 -3.4 99 -0.1 NW 37 69 20 37 - - -
17/09:30am -3.4 -12.9 -3.5 99 -0.1 NW 37 50 20 27 - - -
17/09:00am -2.9 -14.4 -3.0 99 -0.1 NW 48 74 26 40 - - -
17/08:56am -2.9 -13.6 -3.0 99 -0.1 NW 44 74 24 40 - - -
17/08:48am -2.1 -11.8 -2.2 99 -0.1 NW 39 59 21 32 - - -
17/08:47am -1.6 -11.2 -1.7 99 0.0 NNW 39 59 21 32 - - -
17/08:30am -1.4 -13.1 -1.5 99 0.0 NNW 50 72 27 39 - - -
17/08:25am -1.4 -13.1 -1.5 99 0.0 NNW 50 72 27 39 - - -
17/08:02am -1.3 -10.1 -1.4 99 0.0 NNW 35 54 19 29 - - -
17/08:00am -1.2 -10.4 -1.3 99 0.0 NNW 37 54 20 29 - - -
17/07:30am -1.1 -9.9 -1.2 99 0.0 NNW 35 56 19 30 - - -
17/07:00am -1.1 -9.9 -1.2 99 0.0 NW 35 54 19 29 - - -
17/06:51am -1.2 -9.6 -1.3 99 0.0 NW 33 54 18 29 - - -
17/06:30am -1.1 -9.5 -1.2 99 0.0 NW 33 50 18 27 - - -
17/06:00am 0.7 -7.8 0.6 99 0.0 NW 35 56 19 30 - - -
17/05:30am 1.1 -8.1 1.0 99 0.0 NNW 39 63 21 34 - - -
17/05:00am 1.1 -8.1 1.0 99 0.0 NW 39 63 21 34 - - -
17/04:37am 1.5 -6.9 1.4 99 0.0 NNW 35 54 19 29 - - -
17/04:30am 1.6 -6.8 1.5 99 0.0 NNW 35 50 19 27 - - -
17/04:05am 1.1 -6.1 1.0 99 0.0 NNW 28 50 15 27 - - -
17/04:00am 1.2 -5.6 1.1 99 0.0 NNW 26 37 14 20 - - -
17/03:30am 1.4 -6.1 1.3 99 0.0 NW 30 48 16 26 - - -
17/03:00am 1.3 -5.8 1.2 99 0.0 NNW 28 46 15 25 - - -
17/02:55am 1.4 -5.7 1.3 99 0.0 NNW 28 46 15 25 - - -
17/02:30am 1.2 -6.3 1.1 99 0.0 NW 30 44 16 24 - - -
17/02:08am 1.0 -6.5 0.9 99 0.0 NW 30 52 16 28 - - -
17/02:00am 0.7 -6.1 0.6 99 0.0 NW 26 41 14 22 - - -
17/01:46am 0.7 -6.5 0.6 99 0.0 NNW 28 54 15 29 - - -
17/01:30am 2.1 -4.1 2.0 99 0.0 NNW 24 35 13 19 - - -
17/01:00am 2.2 -4.8 2.1 99 0.0 NNW 28 39 15 21 - - -
17/12:30am 2.1 -4.5 2.0 99 0.0 NNW 26 37 14 20 - - -
17/12:00am 2.0 -4.2 1.9 99 0.0 NNW 24 35 13 19 - - -
 
Date/Time
EDT
Temp
°C
App
Temp
°C
Dew
Point
°C
Rel
Hum
%
Delta-T
°C
Wind Press
QNH
hPa
Press
MSL
hPa
Rain since
9am
mm
Dir  Spd
km/h
Gust
km/h
Spd
kts
Gust
kts
16/11:30pm 2.1 -5.7 2.0 99 0.0 NNW 32 43 17 23 - - -
16/11:00pm 2.1 -4.5 2.0 99 0.0 NW 26 35 14 19 - - -
16/10:30pm 2.3 -4.7 2.2 99 0.0 NW 28 39 15 21 - - -
16/10:00pm 2.4 -4.2 2.3 99 0.0 NW 26 41 14 22 - - -
16/09:30pm 2.4 -4.2 2.3 99 0.0 NW 26 41 14 22 - - -
16/09:00pm 2.6 -3.5 2.5 99 0.0 NW 24 37 13 20 - - -
16/08:30pm 2.7 -2.7 2.6 99 0.0 WNW 20 32 11 17 - - -
16/08:00pm 2.9 -2.8 2.8 99 0.0 NW 22 33 12 18 - - -
16/07:30pm 3.2 -2.8 3.1 99 0.0 NNW 24 33 13 18 - - -
16/07:00pm 3.3 -2.3 3.2 99 0.0 NNW 22 35 12 19 - - -
16/06:30pm 3.3 -3.5 3.2 99 0.0 NNW 28 46 15 25 - - -
16/06:00pm 3.4 -3.0 3.3 99 0.0 NNW 26 41 14 22 - - -
16/05:30pm 3.4 -3.4 3.3 99 0.0 NNW 28 39 15 21 - - -
16/05:00pm 3.2 -3.6 3.1 99 0.0 NNW 28 39 15 21 - - -
16/04:30pm 3.0 -4.2 2.9 99 0.0 NNW 30 43 16 23 - - -
16/04:00pm 2.9 -4.3 2.8 99 0.0 N 30 39 16 21 - - -
16/03:30pm 3.0 -4.2 2.9 99 0.0 NNW 30 44 16 24 - - -
16/03:00pm 3.0 -2.7 2.9 99 0.0 NNW 22 32 12 17 - - -
16/02:30pm 3.2 -3.2 3.1 99 0.0 NW 26 41 14 22 - - -
16/02:00pm 3.0 -4.2 2.9 99 0.0 NW 30 39 16 21 - - -
16/01:30pm 3.4 -3.4 3.3 99 0.0 NW 28 39 15 21 - - -
16/01:00pm 3.5 -2.5 3.4 99 0.0 NNW 24 35 13 19 - - -
16/12:30pm 3.5 -4.0 3.4 99 0.0 NNW 32 43 17 23 - - -
16/12:00pm 3.7 -3.0 3.6 99 0.0 NNW 28 39 15 21 - - -
16/11:30am 4.0 -3.0 3.9 99 0.0 NNW 30 39 16 21 - - -
16/11:00am 3.6 -3.1 3.5 99 0.0 NNW 28 39 15 21 - - -
16/10:30am 4.3 -2.4 3.4 94 0.4 NNW 28 39 15 21 - - -
16/10:00am 4.1 -2.2 3.7 97 0.2 NW 26 35 14 19 - - -
16/09:30am 4.1 -1.9 3.5 96 0.3 NNW 24 37 13 20 - - -
16/09:10am 4.5 -2.2 3.5 93 0.5 NNW 28 46 15 25 - - -
16/09:00am 4.2 -2.6 3.3 94 0.4 NNW 28 44 15 24 - - -
16/08:30am 4.7 -2.7 1.7 81 1.3 NNW 30 48 16 26 - - -
16/08:29am 4.8 -2.6 1.8 81 1.3 NNW 30 48 16 26 - - -
16/08:00am 4.1 -2.5 2.0 86 0.9 NNW 26 37 14 20 - - -
16/07:30am 4.2 -3.6 1.6 83 1.2 NNW 32 43 17 23 - - -
16/07:00am 4.6 -4.4 0.2 73 1.9 NNW 37 63 20 34 - - -
16/06:37am 5.7 -1.8 -1.4 60 3.0 NNW 28 50 15 27 - - -
16/06:30am 5.4 -0.9 -1.3 62 2.8 NW 22 39 12 21 - - -
16/06:00am 4.8 -1.0 -0.2 70 2.1 NNW 20 35 11 19 - - -
16/05:30am 4.8 -1.4 0.0 71 2.1 NNW 22 33 12 18 - - -
16/05:00am 5.2 -1.8 -0.6 66 2.5 NNW 26 33 14 18 - - -
16/04:30am 5.5 -1.2 -1.4 61 2.9 NNW 24 33 13 18 - - -
16/04:00am 5.7 0.3 -1.7 59 3.1 NNW 17 28 9 15 - - -
16/03:30am 6.3 0.1 -5.3 43 4.5 NW 19 28 10 15 - - -
16/03:00am 6.0 0.6 -4.4 47 4.1 NW 15 26 8 14 - - -
16/02:30am 5.4 0.9 2.2 80 1.5 NNW 15 20 8 11 - - -
16/02:00am 5.5 -0.2 0.7 71 2.1 NW 20 26 11 14 - - -
16/01:30am 5.3 0.7 -1.2 63 2.7 NNW 13 17 7 9 - - -
16/01:00am 5.9 0.6 -3.4 51 3.7 NNW 15 20 8 11 - - -
16/12:30am 5.8 0.1 -3.5 51 3.7 NW 17 22 9 12 - - -
16/12:00am 5.9 1.9 4.9 93 0.5 NNW 15 20 8 11 - - -
 
Date/Time
EDT
Temp
°C
App
Temp
°C
Dew
Point
°C
Rel
Hum
%
Delta-T
°C
Wind Press
QNH
hPa
Press
MSL
hPa
Rain since
9am
mm
Dir  Spd
km/h
Gust
km/h
Spd
kts
Gust
kts
15/11:30pm 6.3 2.5 6.0 98 0.2 NNW 15 20 8 11 - - -
15/11:00pm 6.4 2.6 5.7 95 0.3 NNW 15 22 8 12 - - -
15/10:30pm 6.6 2.6 5.1 90 0.7 NNW 15 22 8 12 - - -
15/10:00pm 6.4 2.0 4.7 89 0.8 NNW 17 22 9 12 - - -
15/09:30pm 7.1 3.1 4.9 86 1.1 NW 15 17 8 9 - - -
15/09:00pm 7.3 3.0 5.1 86 1.1 NNW 17 20 9 11 - - -
15/08:30pm 7.4 3.4 5.0 85 1.2 NNW 15 19 8 10 - - -
15/08:00pm 7.7 2.9 4.8 82 1.4 NNW 19 24 10 13 - - -
15/07:30pm 8.3 2.5 4.3 76 2.0 NW 24 32 13 17 - - -
15/07:00pm 9.1 2.9 4.5 73 2.3 NNW 26 35 14 19 - - -
15/06:30pm 9.7 4.2 3.9 67 2.8 NW 22 30 12 16 - - -
15/06:00pm 10.4 4.3 2.5 58 3.8 NNW 24 35 13 19 - - -
15/05:30pm 11.7 6.6 4.0 59 3.8 NNW 20 35 11 19 - - -
15/05:00pm 11.6 5.3 3.9 59 3.8 NNW 26 43 14 23 - - -
15/04:30pm 12.6 6.7 3.8 55 4.4 NNW 24 43 13 23 - - -
15/04:00pm 13.1 7.2 3.7 53 4.7 NNW 24 39 13 21 - - -
15/03:30pm 13.2 6.9 3.6 52 4.8 NNW 26 39 14 21 - - -
15/03:00pm 13.0 6.1 2.3 48 5.2 N 28 43 15 23 - - -
15/02:35pm 13.3 6.4 2.8 49 5.2 NNW 28 50 15 27 - - -
15/02:30pm 13.6 6.9 3.7 51 5.0 NNW 28 43 15 23 - - -
15/02:00pm 13.7 7.4 3.8 51 5.0 NNW 26 44 14 24 - - -
15/01:30pm 13.3 7.4 3.9 53 4.7 NNW 24 39 13 21 - - -
15/01:00pm 11.7 5.0 3.5 57 4.0 N 28 43 15 23 - - -
15/12:30pm 12.2 5.7 4.9 61 3.7 NNW 28 35 15 19 - - -
15/12:00pm 11.6 4.9 3.9 59 3.8 N 28 41 15 22 - - -
15/11:30am 11.7 5.1 4.0 59 3.8 N 28 41 15 22 - - -
15/11:00am 11.1 4.9 4.1 62 3.5 NNW 26 41 14 22 - - -
15/10:30am 10.0 2.8 3.1 62 3.3 NNW 30 39 16 21 - - -
15/10:00am 9.9 2.7 3.0 62 3.3 NNW 30 39 16 21 - - -
15/09:30am 10.2 3.0 3.0 61 3.5 N 30 39 16 21 - - -
15/09:00am 9.7 2.8 2.3 60 3.5 N 28 37 15 20 - - -
15/08:30am 9.5 2.8 1.7 58 3.6 N 26 37 14 20 - - -
15/08:00am 9.0 2.0 2.1 62 3.2 N 28 35 15 19 - - -
15/07:30am 8.2 0.4 2.0 65 2.9 N 32 43 17 23 - - -
15/07:00am 7.5 -0.3 1.4 65 2.8 N 32 39 17 21 - - -
15/06:30am 7.5 0.4 1.4 65 2.8 NNW 28 37 15 20 - - -
15/06:00am 7.1 0.0 1.4 67 2.6 NNW 28 35 15 19 - - -
15/05:30am 7.8 0.7 1.4 64 2.9 NNW 28 41 15 22 - - -
15/05:00am 7.4 -0.1 1.3 65 2.8 NNW 30 39 16 21 - - -
15/04:30am 7.6 0.9 1.5 65 2.8 NNW 26 43 14 23 - - -
15/04:00am 6.7 0.0 1.2 68 2.5 NNW 26 35 14 19 - - -
15/03:30am 7.2 0.1 1.5 67 2.6 NNW 28 35 15 19 - - -
15/03:00am 6.9 0.6 1.4 68 2.5 NNW 24 30 13 16 - - -
15/02:30am 7.5 1.2 1.6 66 2.7 NNW 24 30 13 16 - - -
15/02:00am 7.4 1.1 1.5 66 2.7 NNW 24 30 13 16 - - -
15/01:30am 7.5 1.2 1.4 65 2.8 NNW 24 30 13 16 - - -
15/01:00am 6.9 1.0 1.4 68 2.5 NNW 22 28 12 15 - - -
15/12:30am 7.4 1.1 1.7 67 2.6 NNW 24 30 13 16 - - -
15/12:00am 7.1 0.8 1.4 67 2.6 NNW 24 32 13 17 - - -
 
Date/Time
EDT
Temp
°C
App
Temp
°C
Dew
Point
°C
Rel
Hum
%
Delta-T
°C
Wind Press
QNH
hPa
Press
MSL
hPa
Rain since
9am
mm
Dir  Spd
km/h
Gust
km/h
Spd
kts
Gust
kts
14/11:30pm 7.1 0.8 1.6 68 2.5 NNW 24 32 13 17 - - -
14/11:00pm 6.6 0.3 1.5 70 2.3 NNW 24 32 13 17 - - -
14/10:30pm 6.3 0.4 1.6 72 2.1 NNW 22 28 12 15 - - -
14/10:00pm 5.9 0.5 2.2 77 1.7 N 20 26 11 14 - - -
14/09:30pm 6.3 0.4 2.0 74 2.0 NNW 22 28 12 15 - - -
14/09:00pm 6.3 0.5 2.2 75 1.9 N 22 32 12 17 - - -
14/08:30pm 6.7 -0.3 2.0 72 2.2 N 28 37 15 20 - - -
14/08:00pm 6.6 -0.3 2.7 76 1.8 N 28 33 15 18 - - -
14/07:30pm 6.5 0.6 3.8 83 1.3 NNW 24 30 13 16 - - -
14/07:00pm 6.8 1.3 3.8 81 1.4 NNW 22 32 12 17 - - -

Other formats

Comma delimited format used in spreadsheet applications
http://www.bom.gov.au/fwo/IDV60801/IDV60801.94906.axf

JavaScript Object Notation format (JSON) in row-major order
http://www.bom.gov.au/fwo/IDV60801/IDV60801.94906.json

Data quality

Most of these data are generated automatically and are frequently updated. Quality checks on data are not normally performed. It is possible for incorrect values to appear. Refer to information at About Latest Weather Observations and please check the disclaimer before using these data.